• Join FlightAware (Why Join?)
  • Login
  • US Flag 
10:20PM EDT


 

Airport Tracker/Info


-or-


 

Live Flight TrackerFlight Track Log ✈ N147SW ✈ 01-May-2014 ✈ KPIE - KCAE

Flight Track Log - Related Links

Times and Time Zones

All times are in EDT time to prevent confusion due to time zone crossing. See the N147SW flight status page for this flight to view local times or setup timezone preferences in your user account.

Time Position Orientation Groundspeed Altitude Reporting Facility
EDT Latitude Longitude Course Direction KTS MPH feet Rate Location/Type
06:55AM 27.9000 -82.6833 270° West 142 163 800  Level Tampa TRACON
06:55AM 27.9000 -82.7000 270° West 182 209 1,500 1,740 Climbing Tampa TRACON
06:56AM 27.9000 -82.7667 270° West 228 262 3,300 1,860 Climbing Tampa TRACON
06:57AM 27.9000 -82.8500 270° West 272 313 5,300 2,520 Climbing Tampa TRACON
07:00AM 28.0581 -82.7656 25° Northeast 268 308 11,900 1,980 Climbing Jacksonville Center
07:01AM 28.1581 -82.7256 19° North 334 384 12,000 780 Climbing Jacksonville Center
07:02AM 28.2561 -82.6969 14° North 360 414 13,500 2,640 Climbing Jacksonville Center
07:03AM 28.3583 -82.6661 15° North 372 428 17,300 2,880 Climbing Jacksonville Center
07:04AM 28.4564 -82.6375 14° North 372 428 19,300 1,920 Climbing Jacksonville Center
07:05AM 28.5628 -82.6539 352° North 367 422 21,200 1,740 Climbing Jacksonville Center
07:06AM 28.6694 -82.6703 352° North 377 434 22,800 1,500 Climbing Jacksonville Center
07:07AM 28.7800 -82.6889 352° North 389 448 24,200 1,500 Climbing Jacksonville Center
07:08AM 28.8947 -82.7028 354° North 401 461 25,800 1,440 Climbing Jacksonville Center
07:09AM 29.0139 -82.7144 355° North 412 474 27,100 1,140 Climbing Jacksonville Center
07:10AM 29.1308 -82.7286 354° North 417 480 28,100 900 Climbing Jacksonville Center
07:11AM 29.2497 -82.7425 354° North 422 486 29,000 960 Climbing Jacksonville Center
07:12AM 29.3708 -82.7544 355° North 427 491 30,100 1,260 Climbing Jacksonville Center
07:13AM 29.5108 -82.7733 353° North 441 507 31,600 900 Climbing Jacksonville Center
07:14AM 29.6317 -82.7803 357° North 441 507 32,000 1,140 Climbing Jacksonville Center
07:15AM 29.7569 -82.7944 354° North 453 521 33,900 1,500 Climbing Jacksonville Center
07:16AM 29.8781 -82.7681 11° North 435 501 35,000 840 Climbing Jacksonville Center
07:17AM 30.0056 -82.7272 16° North 448 516 35,600 900 Climbing Jacksonville Center
07:18AM 30.1306 -82.6789 18° North 454 522 36,900 660 Climbing Jacksonville Center
07:19AM 30.2600 -82.6400 15° North 459 528 37,000  Climbing Jacksonville Center
07:20AM 30.3769 -82.6014 16° North 470 541 37,000  Level Jacksonville Center
07:21AM 30.5125 -82.5525 17° North 484 557 37,000  Level Jacksonville Center
07:22AM 30.6458 -82.5014 18° North 495 570 37,000  Level Jacksonville Center
07:23AM 30.7814 -82.4478 19° North 500 575 37,000  Level Jacksonville Center
07:24AM 30.9169 -82.3936 19° North 500 575 37,000  Level Jacksonville Center
07:25AM 31.0525 -82.3422 18° North 500 575 37,000  Level Jacksonville Center
07:26AM 31.1900 -82.2878 19° North 505 581 37,000  Level Jacksonville Center
07:27AM 31.3256 -82.2333 19° North 511 588 37,000  Level Jacksonville Center
07:28AM 31.4631 -82.1789 19° North 511 588 37,000  Level Jacksonville Center
07:29AM 31.5983 -82.1217 20° North 511 588 37,000 -60 Level Jacksonville Center
07:30AM 31.7461 -82.0619 19° North 511 588 36,900 -720 Descending Jacksonville Center
07:31AM 31.8711 -82.0094 20° North 511 588 35,600 -1,860 Descending Jacksonville Center
07:32AM 32.0253 -81.9467 19° North 523 602 33,200 -2,400 Descending Jacksonville Center
07:33AM 32.1647 -81.8889 19° North 523 602 30,900 -2,400 Descending Jacksonville Center
07:34AM 32.2917 -81.8358 19° North 523 602 28,500 -2,580 Descending Jacksonville Center
07:35AM 32.4475 -81.7675 20° North 530 610 25,800 -2,280 Descending Jacksonville Center
07:36AM 32.5722 -81.7167 19° North 530 610 24,000 -960 Descending Jacksonville Center
07:37AM 32.7075 -81.6556 21° North 512 589 23,900 -720 Descending Jacksonville Center
07:38AM 32.8425 -81.5994 19° North 512 589 22,600 -1,500 Descending Jacksonville Center
07:39AM 32.9778 -81.5406 20° North 512 589 21,000 -840 Descending Jacksonville Center
07:40AM 33.1064 -81.4842 20° North 502 578 21,000 -1,200 Level Jacksonville Center
07:41AM 33.2353 -81.4275 20° North 494 568 18,600 -2,820 Descending Jacksonville Center
07:42AM 33.3597 -81.3731 20° North 480 552 15,400 -3,360 Descending Jacksonville Center
07:43AM 33.4739 -81.3214 21° North 461 531 11,900 -3,420 Descending Jacksonville Center
07:44AM 33.5711 -81.2547 30° Northeast 423 487 8,600 -3,060 Descending Jacksonville Center
07:45AM 33.6706 -81.1856 30° Northeast 388 447 5,800 -2,220 Descending Jacksonville Center
07:46AM 33.7531 -81.1292 30° Northeast 356 410 4,200 -1,500 Descending Jacksonville Center
07:47AM 33.8236 -81.0875 26° Northeast 326 375 2,800 -900 Descending Jacksonville Center
07:48AM 33.8897 -81.0586 20° North 288 331 2,400 10,560 Descending Jacksonville Center
07:49AM 33.9747 -81.0069 27° Northeast 288 331 24,000 10,800 Climbing Jacksonville Center
07:50AM 34.0469 -80.9678 24° Northeast 288 331 24,000  Level Jacksonville Center
07:52AM 33.9333 -81.1167 231° Southwest  Level FlightAware Approximate